Cookshire, Canada
Current Conditions -  °F | °C
As of 7:00 AM on Thursday 27 Nov 2014 (Local Time) from CYSC Reporting Station
Light Snow Light Snow  
Wind Chill: 17°   Ceiling: 3200
Heat Index: 23°   Visibility: 5mi
Dew Point: 21°   Wind: 5mph
Humidity: 93%   Direction: 340°NNW
Pressure: 29.92"   Gusts: NA
Location:  45.42°N, 71.62°W
Report Text: CYSC 271200Z AUTO 34004KT 320V020 5SM -SN OVC032 M05/M06 A2992 RMK SLP143
Loading
Personal Weather Stations






























Interactive Weather Map New forecast layout! Learn more

10-Day Weather Forecast

Advertisements
Track Severe Weather on mobile